sensor_id;sensor_type;location;lat;lon;timestamp;P1;durP1;ratioP1;P2;durP2;ratioP2
31974;SDS011;18500;43.618;1.474;2022-07-23T00:00:09;519.20;;;482.45;;
31974;SDS011;18500;43.618;1.474;2022-07-23T00:02:34;421.98;;;396.75;;
31974;SDS011;18500;43.618;1.474;2022-07-23T00:05:00;554.40;;;517.35;;
31974;SDS011;18500;43.618;1.474;2022-07-23T00:07:26;447.42;;;419.88;;
31974;SDS011;18500;43.618;1.474;2022-07-23T00:09:52;494.63;;;463.15;;
31974;SDS011;18500;43.618;1.474;2022-07-23T00:12:18;357.17;;;336.50;;
31974;SDS011;18500;43.618;1.474;2022-07-23T00:14:43;521.85;;;487.30;;
31974;SDS011;18500;43.618;1.474;2022-07-23T00:17:09;385.40;;;363.05;;
31974;SDS011;18500;43.618;1.474;2022-07-23T00:19:35;434.63;;;408.40;;
31974;SDS011;18500;43.618;1.474;2022-07-23T00:22:00;432.73;;;406.92;;
31974;SDS011;18500;43.618;1.474;2022-07-23T00:24:26;382.98;;;360.25;;
31974;SDS011;18500;43.618;1.474;2022-07-23T00:26:52;521.40;;;486.67;;
31974;SDS011;18500;43.618;1.474;2022-07-23T00:29:17;389.98;;;366.67;;
31974;SDS011;18500;43.618;1.474;2022-07-23T00:31:43;398.20;;;374.70;;
31974;SDS011;18500;43.618;1.474;2022-07-23T00:34:09;367.90;;;346.73;;
31974;SDS011;18500;43.618;1.474;2022-07-23T00:36:34;351.45;;;331.65;;
31974;SDS011;18500;43.618;1.474;2022-07-23T00:39:00;501.42;;;469.85;;
31974;SDS011;18500;43.618;1.474;2022-07-23T00:41:26;321.10;;;302.80;;
31974;SDS011;18500;43.618;1.474;2022-07-23T00:43:51;138.30;;;130.45;;
31974;SDS011;18500;43.618;1.474;2022-07-23T00:46:20;214.70;;;202.75;;
31974;SDS011;18500;43.618;1.474;2022-07-23T00:48:46;139.02;;;130.10;;
31974;SDS011;18500;43.618;1.474;2022-07-23T00:51:12;68.53;;;64.07;;
31974;SDS011;18500;43.618;1.474;2022-07-23T00:53:40;53.88;;;50.83;;
31974;SDS011;18500;43.618;1.474;2022-07-23T00:56:06;57.58;;;53.67;;
31974;SDS011;18500;43.618;1.474;2022-07-23T00:58:33;59.70;;;55.63;;
31974;SDS011;18500;43.618;1.474;2022-07-23T01:01:00;79.60;;;75.20;;
31974;SDS011;18500;43.618;1.474;2022-07-23T01:03:26;102.80;;;96.75;;
31974;SDS011;18500;43.618;1.474;2022-07-23T01:05:52;204.70;;;192.00;;
31974;SDS011;18500;43.618;1.474;2022-07-23T01:08:18;130.85;;;122.75;;
31974;SDS011;18500;43.618;1.474;2022-07-23T01:10:44;75.85;;;71.05;;
31974;SDS011;18500;43.618;1.474;2022-07-23T01:13:13;62.45;;;58.90;;
31974;SDS011;18500;43.618;1.474;2022-07-23T01:15:39;338.20;;;317.52;;
31974;SDS011;18500;43.618;1.474;2022-07-23T01:18:05;107.13;;;101.05;;
31974;SDS011;18500;43.618;1.474;2022-07-23T01:20:32;113.00;;;106.35;;
31974;SDS011;18500;43.618;1.474;2022-07-23T01:22:58;105.28;;;99.18;;
31974;SDS011;18500;43.618;1.474;2022-07-23T01:25:24;347.13;;;323.23;;
31974;SDS011;18500;43.618;1.474;2022-07-23T01:27:51;146.70;;;137.77;;
31974;SDS011;18500;43.618;1.474;2022-07-23T01:30:18;132.68;;;125.25;;
31974;SDS011;18500;43.618;1.474;2022-07-23T01:32:44;109.93;;;103.53;;
31974;SDS011;18500;43.618;1.474;2022-07-23T01:35:10;116.85;;;110.38;;
31974;SDS011;18500;43.618;1.474;2022-07-23T01:37:36;178.90;;;168.85;;
31974;SDS011;18500;43.618;1.474;2022-07-23T01:40:02;150.65;;;142.00;;
31974;SDS011;18500;43.618;1.474;2022-07-23T01:42:29;150.02;;;141.43;;
31974;SDS011;18500;43.618;1.474;2022-07-23T01:44:55;211.35;;;198.73;;
31974;SDS011;18500;43.618;1.474;2022-07-23T01:47:21;112.25;;;105.85;;
31974;SDS011;18500;43.618;1.474;2022-07-23T01:49:46;148.48;;;139.80;;
31974;SDS011;18500;43.618;1.474;2022-07-23T01:52:12;158.60;;;149.60;;
31974;SDS011;18500;43.618;1.474;2022-07-23T01:54:38;160.68;;;151.65;;
31974;SDS011;18500;43.618;1.474;2022-07-23T01:57:04;115.03;;;108.32;;
31974;SDS011;18500;43.618;1.474;2022-07-23T01:59:30;206.13;;;194.15;;
31974;SDS011;18500;43.618;1.474;2022-07-23T02:01:57;127.18;;;119.78;;
31974;SDS011;18500;43.618;1.474;2022-07-23T02:04:23;161.48;;;152.07;;
31974;SDS011;18500;43.618;1.474;2022-07-23T02:06:50;142.57;;;134.70;;
31974;SDS011;18500;43.618;1.474;2022-07-23T02:09:16;138.65;;;130.93;;
31974;SDS011;18500;43.618;1.474;2022-07-23T02:11:42;155.73;;;146.95;;
31974;SDS011;18500;43.618;1.474;2022-07-23T02:14:08;322.75;;;303.30;;
31974;SDS011;18500;43.618;1.474;2022-07-23T02:16:34;271.80;;;255.93;;
31974;SDS011;18500;43.618;1.474;2022-07-23T02:19:00;142.77;;;134.57;;
31974;SDS011;18500;43.618;1.474;2022-07-23T02:21:25;151.35;;;142.80;;
31974;SDS011;18500;43.618;1.474;2022-07-23T02:23:51;186.00;;;174.75;;
31974;SDS011;18500;43.618;1.474;2022-07-23T02:26:17;166.30;;;156.63;;
31974;SDS011;18500;43.618;1.474;2022-07-23T02:28:42;126.82;;;119.40;;
31974;SDS011;18500;43.618;1.474;2022-07-23T02:31:08;214.18;;;201.70;;
31974;SDS011;18500;43.618;1.474;2022-07-23T02:33:34;160.73;;;151.25;;
31974;SDS011;18500;43.618;1.474;2022-07-23T02:36:00;146.02;;;137.32;;
31974;SDS011;18500;43.618;1.474;2022-07-23T02:38:25;159.30;;;150.00;;
31974;SDS011;18500;43.618;1.474;2022-07-23T02:40:51;148.63;;;140.20;;
31974;SDS011;18500;43.618;1.474;2022-07-23T02:43:17;153.00;;;143.82;;
31974;SDS011;18500;43.618;1.474;2022-07-23T02:45:43;242.35;;;228.02;;
31974;SDS011;18500;43.618;1.474;2022-07-23T02:48:09;174.65;;;164.70;;
31974;SDS011;18500;43.618;1.474;2022-07-23T02:50:37;140.45;;;132.25;;
31974;SDS011;18500;43.618;1.474;2022-07-23T02:53:03;162.07;;;153.00;;
31974;SDS011;18500;43.618;1.474;2022-07-23T02:55:29;169.60;;;159.18;;
31974;SDS011;18500;43.618;1.474;2022-07-23T02:57:56;170.00;;;160.38;;
31974;SDS011;18500;43.618;1.474;2022-07-23T03:00:21;201.93;;;189.90;;
31974;SDS011;18500;43.618;1.474;2022-07-23T03:02:47;212.50;;;200.20;;
31974;SDS011;18500;43.618;1.474;2022-07-23T03:05:13;185.77;;;174.48;;
31974;SDS011;18500;43.618;1.474;2022-07-23T03:07:39;188.45;;;177.68;;
31974;SDS011;18500;43.618;1.474;2022-07-23T03:10:04;151.77;;;143.07;;
31974;SDS011;18500;43.618;1.474;2022-07-23T03:12:30;247.70;;;233.15;;
31974;SDS011;18500;43.618;1.474;2022-07-23T03:14:56;163.43;;;154.05;;
31974;SDS011;18500;43.618;1.474;2022-07-23T03:17:21;248.07;;;232.77;;
31974;SDS011;18500;43.618;1.474;2022-07-23T03:19:47;154.52;;;145.48;;
31974;SDS011;18500;43.618;1.474;2022-07-23T03:22:13;184.77;;;174.30;;
31974;SDS011;18500;43.618;1.474;2022-07-23T03:24:38;147.30;;;138.90;;
31974;SDS011;18500;43.618;1.474;2022-07-23T03:27:22;142.20;;;133.82;;
31974;SDS011;18500;43.618;1.474;2022-07-23T03:29:49;157.18;;;148.10;;
31974;SDS011;18500;43.618;1.474;2022-07-23T03:32:16;144.75;;;136.57;;
31974;SDS011;18500;43.618;1.474;2022-07-23T03:34:42;154.57;;;145.55;;
31974;SDS011;18500;43.618;1.474;2022-07-23T03:37:08;155.75;;;146.70;;
31974;SDS011;18500;43.618;1.474;2022-07-23T03:39:33;145.07;;;136.13;;
31974;SDS011;18500;43.618;1.474;2022-07-23T03:41:59;140.45;;;131.68;;
31974;SDS011;18500;43.618;1.474;2022-07-23T03:44:25;216.52;;;202.70;;
31974;SDS011;18500;43.618;1.474;2022-07-23T03:46:50;147.38;;;138.38;;
31974;SDS011;18500;43.618;1.474;2022-07-23T03:49:16;122.72;;;115.53;;
31974;SDS011;18500;43.618;1.474;2022-07-23T03:51:42;127.10;;;119.32;;
31974;SDS011;18500;43.618;1.474;2022-07-23T03:54:08;122.75;;;115.72;;
31974;SDS011;18500;43.618;1.474;2022-07-23T03:56:34;132.50;;;125.15;;
31974;SDS011;18500;43.618;1.474;2022-07-23T03:59:00;137.45;;;129.30;;
31974;SDS011;18500;43.618;1.474;2022-07-23T04:01:26;273.60;;;257.45;;
31974;SDS011;18500;43.618;1.474;2022-07-23T04:03:52;127.93;;;120.57;;
31974;SDS011;18500;43.618;1.474;2022-07-23T04:06:17;343.40;;;321.63;;
31974;SDS011;18500;43.618;1.474;2022-07-23T04:08:43;126.47;;;119.40;;
31974;SDS011;18500;43.618;1.474;2022-07-23T04:11:09;127.07;;;119.70;;
31974;SDS011;18500;43.618;1.474;2022-07-23T04:13:34;151.85;;;143.07;;
31974;SDS011;18500;43.618;1.474;2022-07-23T04:16:00;133.50;;;125.82;;
31974;SDS011;18500;43.618;1.474;2022-07-23T04:18:26;185.50;;;174.88;;
31974;SDS011;18500;43.618;1.474;2022-07-23T04:20:51;200.48;;;188.60;;
31974;SDS011;18500;43.618;1.474;2022-07-23T04:23:17;143.75;;;135.70;;
31974;SDS011;18500;43.618;1.474;2022-07-23T04:25:43;133.35;;;125.43;;
31974;SDS011;18500;43.618;1.474;2022-07-23T04:28:09;118.82;;;112.32;;
31974;SDS011;18500;43.618;1.474;2022-07-23T04:30:34;147.10;;;138.60;;
31974;SDS011;18500;43.618;1.474;2022-07-23T04:33:00;187.30;;;175.75;;
31974;SDS011;18500;43.618;1.474;2022-07-23T04:35:26;125.28;;;117.97;;
31974;SDS011;18500;43.618;1.474;2022-07-23T04:37:52;141.45;;;133.27;;
31974;SDS011;18500;43.618;1.474;2022-07-23T04:40:17;125.63;;;117.72;;
31974;SDS011;18500;43.618;1.474;2022-07-23T04:42:43;136.70;;;128.93;;
31974;SDS011;18500;43.618;1.474;2022-07-23T04:45:09;116.03;;;109.28;;
31974;SDS011;18500;43.618;1.474;2022-07-23T04:47:35;172.25;;;162.23;;
31974;SDS011;18500;43.618;1.474;2022-07-23T04:50:00;118.45;;;111.72;;
31974;SDS011;18500;43.618;1.474;2022-07-23T04:52:26;123.97;;;116.85;;
31974;SDS011;18500;43.618;1.474;2022-07-23T04:54:52;144.60;;;135.82;;
31974;SDS011;18500;43.618;1.474;2022-07-23T04:57:17;362.77;;;339.67;;
31974;SDS011;18500;43.618;1.474;2022-07-23T04:59:43;115.28;;;108.22;;
31974;SDS011;18500;43.618;1.474;2022-07-23T05:02:09;166.50;;;156.32;;
31974;SDS011;18500;43.618;1.474;2022-07-23T05:04:34;185.90;;;175.10;;
31974;SDS011;18500;43.618;1.474;2022-07-23T05:07:00;136.95;;;128.25;;
31974;SDS011;18500;43.618;1.474;2022-07-23T05:09:25;136.77;;;128.80;;
31974;SDS011;18500;43.618;1.474;2022-07-23T05:11:51;177.07;;;166.93;;
31974;SDS011;18500;43.618;1.474;2022-07-23T05:14:17;142.75;;;134.57;;
31974;SDS011;18500;43.618;1.474;2022-07-23T05:16:43;235.25;;;220.70;;
31974;SDS011;18500;43.618;1.474;2022-07-23T05:19:08;269.40;;;253.60;;
31974;SDS011;18500;43.618;1.474;2022-07-23T05:21:34;218.98;;;206.45;;
31974;SDS011;18500;43.618;1.474;2022-07-23T05:24:00;171.65;;;161.77;;
31974;SDS011;18500;43.618;1.474;2022-07-23T05:26:26;150.60;;;142.07;;
31974;SDS011;18500;43.618;1.474;2022-07-23T05:28:52;156.55;;;147.40;;
31974;SDS011;18500;43.618;1.474;2022-07-23T05:31:17;205.32;;;193.68;;
31974;SDS011;18500;43.618;1.474;2022-07-23T05:33:43;166.30;;;156.63;;
31974;SDS011;18500;43.618;1.474;2022-07-23T05:36:09;208.27;;;195.85;;
31974;SDS011;18500;43.618;1.474;2022-07-23T05:38:35;314.13;;;296.10;;
31974;SDS011;18500;43.618;1.474;2022-07-23T05:41:01;154.20;;;145.35;;
31974;SDS011;18500;43.618;1.474;2022-07-23T05:43:26;171.27;;;161.40;;
31974;SDS011;18500;43.618;1.474;2022-07-23T05:45:52;142.18;;;133.35;;
31974;SDS011;18500;43.618;1.474;2022-07-23T05:48:18;141.57;;;133.10;;
31974;SDS011;18500;43.618;1.474;2022-07-23T05:50:44;159.02;;;149.68;;
31974;SDS011;18500;43.618;1.474;2022-07-23T05:53:11;144.77;;;136.43;;
31974;SDS011;18500;43.618;1.474;2022-07-23T05:55:37;142.02;;;133.95;;
31974;SDS011;18500;43.618;1.474;2022-07-23T05:58:03;163.70;;;154.48;;
31974;SDS011;18500;43.618;1.474;2022-07-23T06:00:29;142.70;;;134.45;;
31974;SDS011;18500;43.618;1.474;2022-07-23T06:02:55;153.77;;;144.60;;
31974;SDS011;18500;43.618;1.474;2022-07-23T06:05:21;158.48;;;149.73;;
31974;SDS011;18500;43.618;1.474;2022-07-23T06:07:47;154.80;;;145.30;;
31974;SDS011;18500;43.618;1.474;2022-07-23T06:10:12;178.13;;;167.50;;
31974;SDS011;18500;43.618;1.474;2022-07-23T06:12:38;192.25;;;181.10;;
31974;SDS011;18500;43.618;1.474;2022-07-23T06:15:04;171.00;;;160.98;;
31974;SDS011;18500;43.618;1.474;2022-07-23T06:17:30;185.77;;;175.55;;
31974;SDS011;18500;43.618;1.474;2022-07-23T06:19:56;190.95;;;179.82;;
31974;SDS011;18500;43.618;1.474;2022-07-23T06:22:22;237.75;;;223.75;;
31974;SDS011;18500;43.618;1.474;2022-07-23T06:24:48;202.60;;;191.10;;
31974;SDS011;18500;43.618;1.474;2022-07-23T06:27:15;202.18;;;190.77;;
31974;SDS011;18500;43.618;1.474;2022-07-23T06:29:41;370.80;;;348.67;;
31974;SDS011;18500;43.618;1.474;2022-07-23T06:32:07;252.88;;;238.43;;
31974;SDS011;18500;43.618;1.474;2022-07-23T06:34:33;247.15;;;233.25;;
31974;SDS011;18500;43.618;1.474;2022-07-23T06:36:59;275.80;;;259.38;;
31974;SDS011;18500;43.618;1.474;2022-07-23T06:39:25;301.23;;;283.42;;
31974;SDS011;18500;43.618;1.474;2022-07-23T06:41:50;343.58;;;322.55;;
31974;SDS011;18500;43.618;1.474;2022-07-23T06:44:16;236.90;;;223.57;;
31974;SDS011;18500;43.618;1.474;2022-07-23T06:46:42;286.98;;;270.42;;
31974;SDS011;18500;43.618;1.474;2022-07-23T06:49:08;254.88;;;239.90;;
31974;SDS011;18500;43.618;1.474;2022-07-23T06:51:34;301.77;;;284.13;;
31974;SDS011;18500;43.618;1.474;2022-07-23T06:53:59;303.88;;;285.52;;
31974;SDS011;18500;43.618;1.474;2022-07-23T06:56:25;392.67;;;368.25;;
31974;SDS011;18500;43.618;1.474;2022-07-23T06:58:51;365.00;;;342.90;;
31974;SDS011;18500;43.618;1.474;2022-07-23T07:01:17;402.80;;;377.40;;
31974;SDS011;18500;43.618;1.474;2022-07-23T07:03:42;382.20;;;358.45;;
31974;SDS011;18500;43.618;1.474;2022-07-23T07:06:08;416.40;;;390.23;;
31974;SDS011;18500;43.618;1.474;2022-07-23T07:08:34;329.58;;;309.58;;
31974;SDS011;18500;43.618;1.474;2022-07-23T07:10:59;347.77;;;326.63;;
31974;SDS011;18500;43.618;1.474;2022-07-23T07:13:25;362.67;;;340.27;;
31974;SDS011;18500;43.618;1.474;2022-07-23T07:15:51;334.90;;;314.75;;
31974;SDS011;18500;43.618;1.474;2022-07-23T07:18:16;365.92;;;343.25;;
31974;SDS011;18500;43.618;1.474;2022-07-23T07:20:42;359.02;;;336.75;;
31974;SDS011;18500;43.618;1.474;2022-07-23T07:23:08;380.20;;;356.05;;
31974;SDS011;18500;43.618;1.474;2022-07-23T07:25:34;465.58;;;435.80;;
31974;SDS011;18500;43.618;1.474;2022-07-23T07:27:59;458.27;;;428.67;;
31974;SDS011;18500;43.618;1.474;2022-07-23T07:30:25;381.52;;;357.83;;
31974;SDS011;18500;43.618;1.474;2022-07-23T07:32:51;392.50;;;367.60;;
31974;SDS011;18500;43.618;1.474;2022-07-23T07:35:16;441.23;;;413.05;;
31974;SDS011;18500;43.618;1.474;2022-07-23T07:37:42;418.35;;;392.25;;
31974;SDS011;18500;43.618;1.474;2022-07-23T07:40:08;504.60;;;471.58;;
31974;SDS011;18500;43.618;1.474;2022-07-23T07:42:34;410.25;;;384.33;;
31974;SDS011;18500;43.618;1.474;2022-07-23T07:44:59;456.02;;;425.75;;
31974;SDS011;18500;43.618;1.474;2022-07-23T07:47:25;393.38;;;367.88;;
31974;SDS011;18500;43.618;1.474;2022-07-23T07:49:51;382.33;;;357.67;;
31974;SDS011;18500;43.618;1.474;2022-07-23T07:52:17;437.80;;;408.55;;
31974;SDS011;18500;43.618;1.474;2022-07-23T07:54:42;505.95;;;471.48;;
31974;SDS011;18500;43.618;1.474;2022-07-23T07:57:08;531.17;;;494.30;;
31974;SDS011;18500;43.618;1.474;2022-07-23T07:59:34;522.25;;;486.02;;
31974;SDS011;18500;43.618;1.474;2022-07-23T08:02:00;485.42;;;451.52;;
31974;SDS011;18500;43.618;1.474;2022-07-23T08:04:26;534.22;;;496.02;;
31974;SDS011;18500;43.618;1.474;2022-07-23T08:06:52;535.55;;;498.17;;
31974;SDS011;18500;43.618;1.474;2022-07-23T08:09:17;593.00;;;552.22;;
31974;SDS011;18500;43.618;1.474;2022-07-23T08:11:43;507.63;;;471.80;;
31974;SDS011;18500;43.618;1.474;2022-07-23T08:14:09;482.00;;;450.83;;
31974;SDS011;18500;43.618;1.474;2022-07-23T08:16:36;489.02;;;457.20;;
31974;SDS011;18500;43.618;1.474;2022-07-23T08:19:01;478.38;;;446.00;;
31974;SDS011;18500;43.618;1.474;2022-07-23T08:21:27;441.13;;;412.52;;
31974;SDS011;18500;43.618;1.474;2022-07-23T08:23:53;435.50;;;406.52;;
31974;SDS011;18500;43.618;1.474;2022-07-23T08:26:18;432.95;;;404.10;;
31974;SDS011;18500;43.618;1.474;2022-07-23T08:28:44;454.02;;;424.70;;
31974;SDS011;18500;43.618;1.474;2022-07-23T08:31:10;443.52;;;414.17;;
31974;SDS011;18500;43.618;1.474;2022-07-23T08:33:36;457.77;;;428.05;;
31974;SDS011;18500;43.618;1.474;2022-07-23T08:36:02;469.17;;;438.67;;
31974;SDS011;18500;43.618;1.474;2022-07-23T08:38:29;475.88;;;443.90;;
31974;SDS011;18500;43.618;1.474;2022-07-23T08:40:55;516.90;;;482.27;;
31974;SDS011;18500;43.618;1.474;2022-07-23T08:43:25;508.85;;;475.70;;
31974;SDS011;18500;43.618;1.474;2022-07-23T08:45:54;548.35;;;511.48;;
31974;SDS011;18500;43.618;1.474;2022-07-23T08:48:23;518.33;;;483.13;;
31974;SDS011;18500;43.618;1.474;2022-07-23T08:50:54;526.25;;;491.83;;
31974;SDS011;18500;43.618;1.474;2022-07-23T08:53:23;377.10;;;353.63;;
31974;SDS011;18500;43.618;1.474;2022-07-23T08:55:51;286.95;;;270.55;;
31974;SDS011;18500;43.618;1.474;2022-07-23T08:58:19;355.52;;;334.25;;
31974;SDS011;18500;43.618;1.474;2022-07-23T09:00:45;213.30;;;201.23;;
31974;SDS011;18500;43.618;1.474;2022-07-23T09:03:21;288.70;;;272.38;;
31974;SDS011;18500;43.618;1.474;2022-07-23T09:05:51;363.60;;;341.33;;
31974;SDS011;18500;43.618;1.474;2022-07-23T09:08:18;305.95;;;287.70;;
31974;SDS011;18500;43.618;1.474;2022-07-23T09:16:01;379.45;;;355.55;;
31974;SDS011;18500;43.618;1.474;2022-07-23T09:18:30;338.27;;;316.75;;
31974;SDS011;18500;43.618;1.474;2022-07-23T09:21:09;515.20;;;477.60;;
31974;SDS011;18500;43.618;1.474;2022-07-23T09:23:37;377.55;;;353.58;;
31974;SDS011;18500;43.618;1.474;2022-07-23T09:26:16;483.55;;;449.17;;
31974;SDS011;18500;43.618;1.474;2022-07-23T09:28:56;457.10;;;425.67;;
31974;SDS011;18500;43.618;1.474;2022-07-23T09:34:21;393.42;;;368.35;;
31974;SDS011;18500;43.618;1.474;2022-07-23T09:36:48;399.55;;;373.10;;
31974;SDS011;18500;43.618;1.474;2022-07-23T09:39:16;414.63;;;387.42;;
31974;SDS011;18500;43.618;1.474;2022-07-23T09:41:54;465.77;;;434.25;;
31974;SDS011;18500;43.618;1.474;2022-07-23T09:44:20;343.25;;;321.27;;
31974;SDS011;18500;43.618;1.474;2022-07-23T09:46:49;344.10;;;321.40;;
31974;SDS011;18500;43.618;1.474;2022-07-23T09:49:19;337.17;;;314.42;;
31974;SDS011;18500;43.618;1.474;2022-07-23T09:51:48;372.42;;;348.00;;
31974;SDS011;18500;43.618;1.474;2022-07-23T09:54:29;328.20;;;306.35;;
31974;SDS011;18500;43.618;1.474;2022-07-23T09:59:39;354.77;;;331.27;;
31974;SDS011;18500;43.618;1.474;2022-07-23T10:02:05;331.27;;;309.02;;
31974;SDS011;18500;43.618;1.474;2022-07-23T10:04:33;423.15;;;393.95;;
31974;SDS011;18500;43.618;1.474;2022-07-23T10:07:01;415.00;;;386.92;;
31974;SDS011;18500;43.618;1.474;2022-07-23T10:09:29;411.33;;;383.08;;
31974;SDS011;18500;43.618;1.474;2022-07-23T10:11:58;403.55;;;375.70;;
31974;SDS011;18500;43.618;1.474;2022-07-23T10:14:40;390.77;;;364.83;;
31974;SDS011;18500;43.618;1.474;2022-07-23T10:17:07;390.55;;;364.00;;
31974;SDS011;18500;43.618;1.474;2022-07-23T10:19:33;357.80;;;333.60;;
31974;SDS011;18500;43.618;1.474;2022-07-23T10:22:03;408.60;;;380.27;;
31974;SDS011;18500;43.618;1.474;2022-07-23T10:24:58;380.33;;;354.50;;
31974;SDS011;18500;43.618;1.474;2022-07-23T10:30:11;434.13;;;404.10;;
31974;SDS011;18500;43.618;1.474;2022-07-23T10:38:02;310.77;;;292.13;;
31974;SDS011;18500;43.618;1.474;2022-07-23T10:40:37;366.88;;;344.05;;
31974;SDS011;18500;43.618;1.474;2022-07-23T10:43:28;421.17;;;390.25;;
31974;SDS011;18500;43.618;1.474;2022-07-23T10:45:55;431.42;;;401.42;;
31974;SDS011;18500;43.618;1.474;2022-07-23T10:48:37;326.23;;;305.77;;
31974;SDS011;18500;43.618;1.474;2022-07-23T10:51:10;328.38;;;307.17;;
31974;SDS011;18500;43.618;1.474;2022-07-23T10:56:16;435.17;;;406.48;;
31974;SDS011;18500;43.618;1.474;2022-07-23T10:59:03;404.98;;;376.92;;
31974;SDS011;18500;43.618;1.474;2022-07-23T11:01:38;447.67;;;415.88;;
31974;SDS011;18500;43.618;1.474;2022-07-23T11:04:04;420.08;;;391.63;;
31974;SDS011;18500;43.618;1.474;2022-07-23T11:17:22;334.65;;;314.52;;
31974;SDS011;18500;43.618;1.474;2022-07-23T11:22:37;394.55;;;370.65;;
31974;SDS011;18500;43.618;1.474;2022-07-23T11:27:54;254.02;;;238.52;;
31974;SDS011;18500;43.618;1.474;2022-07-23T11:30:39;291.75;;;274.10;;
31974;SDS011;18500;43.618;1.474;2022-07-23T11:35:33;282.83;;;265.73;;
31974;SDS011;18500;43.618;1.474;2022-07-23T11:38:30;242.27;;;228.38;;
31974;SDS011;18500;43.618;1.474;2022-07-23T11:40:57;383.10;;;359.88;;
31974;SDS011;18500;43.618;1.474;2022-07-23T11:43:23;243.82;;;229.85;;
31974;SDS011;18500;43.618;1.474;2022-07-23T11:45:53;277.10;;;260.88;;
31974;SDS011;18500;43.618;1.474;2022-07-23T11:48:24;238.60;;;224.98;;
31974;SDS011;18500;43.618;1.474;2022-07-23T11:50:55;261.55;;;245.73;;
31974;SDS011;18500;43.618;1.474;2022-07-23T11:53:25;270.20;;;254.52;;
31974;SDS011;18500;43.618;1.474;2022-07-23T11:55:51;311.00;;;292.63;;
31974;SDS011;18500;43.618;1.474;2022-07-23T11:58:18;242.05;;;228.35;;
31974;SDS011;18500;43.618;1.474;2022-07-23T12:00:43;241.15;;;226.10;;
31974;SDS011;18500;43.618;1.474;2022-07-23T12:03:09;217.15;;;204.38;;
31974;SDS011;18500;43.618;1.474;2022-07-23T12:05:36;230.00;;;216.23;;
31974;SDS011;18500;43.618;1.474;2022-07-23T12:08:04;459.92;;;426.45;;
31974;SDS011;18500;43.618;1.474;2022-07-23T12:10:36;253.90;;;238.88;;
31974;SDS011;18500;43.618;1.474;2022-07-23T12:15:38;261.55;;;245.85;;
31974;SDS011;18500;43.618;1.474;2022-07-23T12:18:09;376.05;;;351.30;;
31974;SDS011;18500;43.618;1.474;2022-07-23T12:20:44;231.73;;;218.02;;
31974;SDS011;18500;43.618;1.474;2022-07-23T12:23:13;247.52;;;232.77;;
31974;SDS011;18500;43.618;1.474;2022-07-23T12:25:41;262.88;;;247.23;;
31974;SDS011;18500;43.618;1.474;2022-07-23T12:28:12;388.60;;;362.30;;
31974;SDS011;18500;43.618;1.474;2022-07-23T12:30:43;256.85;;;241.57;;
31974;SDS011;18500;43.618;1.474;2022-07-23T12:35:49;281.13;;;263.65;;
31974;SDS011;18500;43.618;1.474;2022-07-23T12:38:15;283.77;;;266.25;;
31974;SDS011;18500;43.618;1.474;2022-07-23T12:40:50;291.35;;;273.27;;
31974;SDS011;18500;43.618;1.474;2022-07-23T12:45:49;592.03;;;549.42;;
31974;SDS011;18500;43.618;1.474;2022-07-23T12:48:17;480.83;;;449.85;;
31974;SDS011;18500;43.618;1.474;2022-07-23T12:50:51;329.73;;;311.38;;
31974;SDS011;18500;43.618;1.474;2022-07-23T12:53:22;355.27;;;335.55;;
31974;SDS011;18500;43.618;1.474;2022-07-23T13:01:44;291.45;;;274.00;;
31974;SDS011;18500;43.618;1.474;2022-07-23T13:06:32;518.65;;;482.73;;
31974;SDS011;18500;43.618;1.474;2022-07-23T13:09:00;487.08;;;454.45;;
31974;SDS011;18500;43.618;1.474;2022-07-23T13:11:27;609.95;;;569.40;;
31974;SDS011;18500;43.618;1.474;2022-07-23T13:13:53;572.10;;;534.75;;
31974;SDS011;18500;43.618;1.474;2022-07-23T13:16:18;680.92;;;630.28;;
31974;SDS011;18500;43.618;1.474;2022-07-23T13:18:44;796.13;;;732.00;;
31974;SDS011;18500;43.618;1.474;2022-07-23T13:21:10;538.55;;;500.38;;
31974;SDS011;18500;43.618;1.474;2022-07-23T13:23:36;552.20;;;510.38;;
31974;SDS011;18500;43.618;1.474;2022-07-23T13:26:02;569.85;;;527.00;;
31974;SDS011;18500;43.618;1.474;2022-07-23T13:28:29;785.58;;;721.47;;
31974;SDS011;18500;43.618;1.474;2022-07-23T13:30:55;829.63;;;762.28;;
31974;SDS011;18500;43.618;1.474;2022-07-23T13:33:22;799.35;;;734.92;;
31974;SDS011;18500;43.618;1.474;2022-07-23T13:35:49;856.60;;;786.42;;
31974;SDS011;18500;43.618;1.474;2022-07-23T13:38:17;940.83;;;863.75;;
31974;SDS011;18500;43.618;1.474;2022-07-23T13:40:44;923.53;;;849.00;;
31974;SDS011;18500;43.618;1.474;2022-07-23T13:43:12;978.75;;;896.28;;
31974;SDS011;18500;43.618;1.474;2022-07-23T13:45:39;951.83;;;871.83;;
31974;SDS011;18500;43.618;1.474;2022-07-23T13:48:07;969.25;;;886.50;;
31974;SDS011;18500;43.618;1.474;2022-07-23T13:50:34;924.30;;;847.97;;
31974;SDS011;18500;43.618;1.474;2022-07-23T13:53:02;984.28;;;898.15;;
31974;SDS011;18500;43.618;1.474;2022-07-23T13:55:28;992.58;;;905.45;;
31974;SDS011;18500;43.618;1.474;2022-07-23T13:57:54;964.78;;;883.13;;
31974;SDS011;18500;43.618;1.474;2022-07-23T14:00:20;905.83;;;831.90;;
31974;SDS011;18500;43.618;1.474;2022-07-23T14:02:46;966.65;;;886.75;;
31974;SDS011;18500;43.618;1.474;2022-07-23T14:05:11;963.15;;;884.30;;
31974;SDS011;18500;43.618;1.474;2022-07-23T14:07:37;914.80;;;836.97;;
31974;SDS011;18500;43.618;1.474;2022-07-23T14:10:05;980.10;;;896.83;;
31974;SDS011;18500;43.618;1.474;2022-07-23T14:12:33;991.95;;;908.67;;
31974;SDS011;18500;43.618;1.474;2022-07-23T14:14:59;930.35;;;852.40;;
31974;SDS011;18500;43.618;1.474;2022-07-23T14:17:24;894.75;;;821.78;;
31974;SDS011;18500;43.618;1.474;2022-07-23T14:19:50;959.83;;;880.03;;
31974;SDS011;18500;43.618;1.474;2022-07-23T14:22:16;978.83;;;894.55;;
31974;SDS011;18500;43.618;1.474;2022-07-23T14:24:41;923.20;;;842.40;;
31974;SDS011;18500;43.618;1.474;2022-07-23T14:27:07;999.28;;;910.25;;
31974;SDS011;18500;43.618;1.474;2022-07-23T14:29:34;900.90;;;820.35;;
31974;SDS011;18500;43.618;1.474;2022-07-23T14:32:00;939.58;;;855.80;;
31974;SDS011;18500;43.618;1.474;2022-07-23T14:34:26;1011.88;;;919.05;;
31974;SDS011;18500;43.618;1.474;2022-07-23T14:36:52;972.45;;;884.05;;
31974;SDS011;18500;43.618;1.474;2022-07-23T14:39:18;1010.90;;;916.53;;
31974;SDS011;18500;43.618;1.474;2022-07-23T14:41:43;1007.70;;;914.92;;
31974;SDS011;18500;43.618;1.474;2022-07-23T14:44:09;1009.40;;;915.25;;
31974;SDS011;18500;43.618;1.474;2022-07-23T14:46:36;1020.30;;;924.58;;
31974;SDS011;18500;43.618;1.474;2022-07-23T14:49:02;940.63;;;856.78;;
31974;SDS011;18500;43.618;1.474;2022-07-23T14:51:28;980.30;;;891.30;;